sensor_id;sensor_type;location;lat;lon;timestamp;P1;durP1;ratioP1;P2;durP2;ratioP2
4692;SDS011;11710;48.024;16.296;2023-09-07T05:21:59;13.50;;;10.90;;
4692;SDS011;11710;48.024;16.296;2023-09-07T05:24:26;13.80;;;10.77;;
4692;SDS011;11710;48.024;16.296;2023-09-07T05:26:54;16.33;;;11.50;;
4692;SDS011;11710;48.024;16.296;2023-09-07T05:29:21;14.30;;;11.63;;
4692;SDS011;11710;48.024;16.296;2023-09-07T05:31:49;12.67;;;10.67;;
4692;SDS011;11710;48.024;16.296;2023-09-07T05:34:16;15.10;;;11.70;;
4692;SDS011;11710;48.024;16.296;2023-09-07T05:36:43;14.73;;;10.90;;
4692;SDS011;11710;48.024;16.296;2023-09-07T05:39:12;14.20;;;11.80;;
4692;SDS011;11710;48.024;16.296;2023-09-07T05:41:39;12.43;;;11.20;;
4692;SDS011;11710;48.024;16.296;2023-09-07T05:44:07;13.63;;;11.67;;
4692;SDS011;11710;48.024;16.296;2023-09-07T05:46:34;14.67;;;13.27;;
4692;SDS011;11710;48.024;16.296;2023-09-07T05:49:02;13.37;;;12.07;;
4692;SDS011;11710;48.024;16.296;2023-09-07T05:51:29;12.27;;;11.13;;
4692;SDS011;11710;48.024;16.296;2023-09-07T05:53:56;13.10;;;11.80;;
4692;SDS011;11710;48.024;16.296;2023-09-07T05:56:25;13.17;;;11.90;;
4692;SDS011;11710;48.024;16.296;2023-09-07T05:58:53;12.47;;;11.30;;
4692;SDS011;11710;48.024;16.296;2023-09-07T06:01:20;13.17;;;11.80;;
4692;SDS011;11710;48.024;16.296;2023-09-07T06:03:47;13.20;;;11.07;;
4692;SDS011;11710;48.024;16.296;2023-09-07T06:06:15;11.97;;;10.93;;
4692;SDS011;11710;48.024;16.296;2023-09-07T06:08:42;11.50;;;10.50;;
4692;SDS011;11710;48.024;16.296;2023-09-07T06:11:10;13.07;;;11.60;;
4692;SDS011;11710;48.024;16.296;2023-09-07T06:13:38;12.30;;;11.10;;
4692;SDS011;11710;48.024;16.296;2023-09-07T06:16:06;12.43;;;11.33;;
4692;SDS011;11710;48.024;16.296;2023-09-07T06:18:34;13.70;;;11.80;;
4692;SDS011;11710;48.024;16.296;2023-09-07T06:21:01;13.83;;;12.20;;
4692;SDS011;11710;48.024;16.296;2023-09-07T06:23:31;12.73;;;11.60;;
4692;SDS011;11710;48.024;16.296;2023-09-07T06:25:59;12.93;;;11.93;;
4692;SDS011;11710;48.024;16.296;2023-09-07T06:28:26;13.63;;;12.43;;
4692;SDS011;11710;48.024;16.296;2023-09-07T06:30:55;14.03;;;12.70;;
4692;SDS011;11710;48.024;16.296;2023-09-07T06:33:23;13.37;;;12.10;;
4692;SDS011;11710;48.024;16.296;2023-09-07T06:35:50;13.27;;;12.07;;
4692;SDS011;11710;48.024;16.296;2023-09-07T06:38:17;13.93;;;12.63;;
4692;SDS011;11710;48.024;16.296;2023-09-07T06:40:47;13.80;;;12.60;;
4692;SDS011;11710;48.024;16.296;2023-09-07T06:43:15;13.23;;;12.13;;
4692;SDS011;11710;48.024;16.296;2023-09-07T06:45:42;13.77;;;12.57;;
4692;SDS011;11710;48.024;16.296;2023-09-07T06:48:11;13.90;;;12.70;;
4692;SDS011;11710;48.024;16.296;2023-09-07T06:50:38;13.03;;;11.80;;
4692;SDS011;11710;48.024;16.296;2023-09-07T06:53:06;12.17;;;11.07;;
4692;SDS011;11710;48.024;16.296;2023-09-07T06:55:33;13.77;;;12.47;;
4692;SDS011;11710;48.024;16.296;2023-09-07T06:58:01;14.37;;;12.80;;
4692;SDS011;11710;48.024;16.296;2023-09-07T07:00:28;14.07;;;12.80;;
4692;SDS011;11710;48.024;16.296;2023-09-07T07:02:56;13.30;;;12.00;;
4692;SDS011;11710;48.024;16.296;2023-09-07T07:05:25;14.37;;;12.87;;
4692;SDS011;11710;48.024;16.296;2023-09-07T07:07:54;15.40;;;13.80;;
4692;SDS011;11710;48.024;16.296;2023-09-07T07:10:21;13.90;;;12.60;;
4692;SDS011;11710;48.024;16.296;2023-09-07T07:12:49;14.70;;;13.40;;
4692;SDS011;11710;48.024;16.296;2023-09-07T07:15:16;14.57;;;13.27;;
4692;SDS011;11710;48.024;16.296;2023-09-07T07:17:44;14.17;;;13.00;;
4692;SDS011;11710;48.024;16.296;2023-09-07T07:20:11;15.67;;;12.47;;
4692;SDS011;11710;48.024;16.296;2023-09-07T07:22:40;14.90;;;13.50;;
4692;SDS011;11710;48.024;16.296;2023-09-07T07:25:07;14.77;;;13.27;;
4692;SDS011;11710;48.024;16.296;2023-09-07T07:27:35;13.53;;;12.23;;
4692;SDS011;11710;48.024;16.296;2023-09-07T07:30:04;14.37;;;12.90;;
4692;SDS011;11710;48.024;16.296;2023-09-07T07:32:32;13.33;;;12.03;;
4692;SDS011;11710;48.024;16.296;2023-09-07T07:34:59;14.57;;;13.17;;
4692;SDS011;11710;48.024;16.296;2023-09-07T07:37:27;14.13;;;12.70;;
4692;SDS011;11710;48.024;16.296;2023-09-07T07:39:55;13.87;;;12.07;;
4692;SDS011;11710;48.024;16.296;2023-09-07T07:42:23;14.57;;;12.90;;
4692;SDS011;11710;48.024;16.296;2023-09-07T07:44:50;15.40;;;13.93;;
4692;SDS011;11710;48.024;16.296;2023-09-07T07:47:17;17.00;;;13.20;;
4692;SDS011;11710;48.024;16.296;2023-09-07T07:49:45;16.23;;;13.00;;
4692;SDS011;11710;48.024;16.296;2023-09-07T07:52:12;18.27;;;13.77;;
4692;SDS011;11710;48.024;16.296;2023-09-07T07:54:40;16.77;;;12.43;;
4692;SDS011;11710;48.024;16.296;2023-09-07T07:57:08;15.77;;;12.50;;
4692;SDS011;11710;48.024;16.296;2023-09-07T07:59:36;15.07;;;13.07;;
4692;SDS011;11710;48.024;16.296;2023-09-07T08:02:04;14.93;;;13.43;;
4692;SDS011;11710;48.024;16.296;2023-09-07T08:04:32;18.47;;;11.77;;
4692;SDS011;11710;48.024;16.296;2023-09-07T08:07:01;16.63;;;11.00;;
4692;SDS011;11710;48.024;16.296;2023-09-07T08:09:30;18.07;;;12.20;;
4692;SDS011;11710;48.024;16.296;2023-09-07T08:11:57;13.77;;;12.37;;
4692;SDS011;11710;48.024;16.296;2023-09-07T08:14:29;15.23;;;11.10;;
4692;SDS011;11710;48.024;16.296;2023-09-07T08:16:57;15.30;;;12.43;;
4692;SDS011;11710;48.024;16.296;2023-09-07T08:19:24;18.57;;;12.37;;
4692;SDS011;11710;48.024;16.296;2023-09-07T08:21:53;13.93;;;11.97;;
4692;SDS011;11710;48.024;16.296;2023-09-07T08:24:20;12.80;;;11.50;;
4692;SDS011;11710;48.024;16.296;2023-09-07T08:26:48;13.30;;;11.90;;
4692;SDS011;11710;48.024;16.296;2023-09-07T08:29:20;13.03;;;11.73;;
4692;SDS011;11710;48.024;16.296;2023-09-07T08:31:51;16.67;;;11.90;;
4692;SDS011;11710;48.024;16.296;2023-09-07T08:34:19;11.37;;;9.87;;
4692;SDS011;11710;48.024;16.296;2023-09-07T08:36:48;11.00;;;9.90;;
4692;SDS011;11710;48.024;16.296;2023-09-07T08:39:20;12.57;;;11.40;;
4692;SDS011;11710;48.024;16.296;2023-09-07T08:41:47;11.80;;;10.70;;
4692;SDS011;11710;48.024;16.296;2023-09-07T08:44:16;10.80;;;9.90;;
4692;SDS011;11710;48.024;16.296;2023-09-07T08:46:44;11.10;;;10.20;;
4692;SDS011;11710;48.024;16.296;2023-09-07T08:49:13;10.73;;;9.83;;
4692;SDS011;11710;48.024;16.296;2023-09-07T08:51:44;12.03;;;9.40;;
4692;SDS011;11710;48.024;16.296;2023-09-07T08:54:12;9.77;;;8.87;;
4692;SDS011;11710;48.024;16.296;2023-09-07T08:56:50;9.50;;;8.60;;
4692;SDS011;11710;48.024;16.296;2023-09-07T08:59:29;11.40;;;8.33;;
4692;SDS011;11710;48.024;16.296;2023-09-07T09:01:56;10.20;;;9.30;;
4692;SDS011;11710;48.024;16.296;2023-09-07T09:04:26;9.50;;;8.03;;
4692;SDS011;11710;48.024;16.296;2023-09-07T09:06:54;9.10;;;8.30;;
4692;SDS011;11710;48.024;16.296;2023-09-07T09:09:21;8.50;;;7.70;;
4692;SDS011;11710;48.024;16.296;2023-09-07T09:11:50;8.53;;;7.83;;
4692;SDS011;11710;48.024;16.296;2023-09-07T09:14:17;8.23;;;7.53;;
4692;SDS011;11710;48.024;16.296;2023-09-07T09:16:49;8.47;;;7.53;;
4692;SDS011;11710;48.024;16.296;2023-09-07T09:19:17;10.27;;;8.43;;
4692;SDS011;11710;48.024;16.296;2023-09-07T09:21:46;9.80;;;8.03;;
4692;SDS011;11710;48.024;16.296;2023-09-07T09:24:15;8.77;;;8.07;;
4692;SDS011;11710;48.024;16.296;2023-09-07T09:26:43;8.10;;;7.30;;
4692;SDS011;11710;48.024;16.296;2023-09-07T09:29:10;9.20;;;6.93;;
4692;SDS011;11710;48.024;16.296;2023-09-07T09:31:40;8.63;;;7.40;;
4692;SDS011;11710;48.024;16.296;2023-09-07T09:34:08;10.10;;;7.03;;
4692;SDS011;11710;48.024;16.296;2023-09-07T09:36:35;7.67;;;7.00;;
4692;SDS011;11710;48.024;16.296;2023-09-07T09:39:07;9.90;;;7.80;;
4692;SDS011;11710;48.024;16.296;2023-09-07T09:41:34;53.97;;;10.67;;
4692;SDS011;11710;48.024;16.296;2023-09-07T09:44:02;13.80;;;7.40;;
4692;SDS011;11710;48.024;16.296;2023-09-07T09:46:31;7.60;;;6.90;;
4692;SDS011;11710;48.024;16.296;2023-09-07T09:48:58;7.40;;;6.67;;
4692;SDS011;11710;48.024;16.296;2023-09-07T09:51:28;12.00;;;7.43;;
4692;SDS011;11710;48.024;16.296;2023-09-07T09:53:58;8.23;;;6.73;;
4692;SDS011;11710;48.024;16.296;2023-09-07T09:56:27;7.73;;;6.30;;
4692;SDS011;11710;48.024;16.296;2023-09-07T09:58:55;6.20;;;5.70;;
4692;SDS011;11710;48.024;16.296;2023-09-07T10:01:22;10.57;;;6.40;;
4692;SDS011;11710;48.024;16.296;2023-09-07T10:03:49;6.83;;;6.20;;
4692;SDS011;11710;48.024;16.296;2023-09-07T10:06:18;5.10;;;4.70;;
4692;SDS011;11710;48.024;16.296;2023-09-07T10:08:54;6.27;;;5.67;;
4692;SDS011;11710;48.024;16.296;2023-09-07T10:11:30;6.00;;;5.40;;
4692;SDS011;11710;48.024;16.296;2023-09-07T10:13:58;4.80;;;4.23;;
4692;SDS011;11710;48.024;16.296;2023-09-07T10:16:25;7.40;;;6.03;;
4692;SDS011;11710;48.024;16.296;2023-09-07T10:18:54;7.00;;;5.90;;
4692;SDS011;11710;48.024;16.296;2023-09-07T10:21:23;7.20;;;6.03;;
4692;SDS011;11710;48.024;16.296;2023-09-07T10:23:51;6.80;;;5.50;;
4692;SDS011;11710;48.024;16.296;2023-09-07T10:26:20;5.97;;;5.23;;
4692;SDS011;11710;48.024;16.296;2023-09-07T10:28:58;7.10;;;5.80;;
4692;SDS011;11710;48.024;16.296;2023-09-07T10:31:26;5.73;;;5.10;;
4692;SDS011;11710;48.024;16.296;2023-09-07T10:33:55;5.93;;;5.33;;
4692;SDS011;11710;48.024;16.296;2023-09-07T10:36:24;7.10;;;5.27;;
4692;SDS011;11710;48.024;16.296;2023-09-07T10:38:52;7.03;;;5.80;;
4692;SDS011;11710;48.024;16.296;2023-09-07T10:41:19;6.90;;;5.87;;
4692;SDS011;11710;48.024;16.296;2023-09-07T10:43:49;7.10;;;4.73;;
4692;SDS011;11710;48.024;16.296;2023-09-07T10:46:18;6.83;;;5.00;;
4692;SDS011;11710;48.024;16.296;2023-09-07T10:48:48;6.10;;;5.50;;
4692;SDS011;11710;48.024;16.296;2023-09-07T10:51:16;8.07;;;5.80;;
4692;SDS011;11710;48.024;16.296;2023-09-07T10:53:43;9.50;;;5.70;;
4692;SDS011;11710;48.024;16.296;2023-09-07T10:56:11;8.90;;;5.43;;
4692;SDS011;11710;48.024;16.296;2023-09-07T10:58:38;6.23;;;5.63;;
4692;SDS011;11710;48.024;16.296;2023-09-07T11:01:09;11.47;;;6.80;;
4692;SDS011;11710;48.024;16.296;2023-09-07T11:03:37;9.23;;;6.20;;
4692;SDS011;11710;48.024;16.296;2023-09-07T11:06:06;7.60;;;5.60;;
4692;SDS011;11710;48.024;16.296;2023-09-07T11:08:36;7.50;;;6.30;;
4692;SDS011;11710;48.024;16.296;2023-09-07T11:11:03;7.23;;;5.77;;
4692;SDS011;11710;48.024;16.296;2023-09-07T11:13:31;6.77;;;6.07;;
4692;SDS011;11710;48.024;16.296;2023-09-07T11:15:59;6.43;;;5.70;;
4692;SDS011;11710;48.024;16.296;2023-09-07T11:18:28;7.60;;;6.40;;
4692;SDS011;11710;48.024;16.296;2023-09-07T11:20:55;9.83;;;6.00;;
4692;SDS011;11710;48.024;16.296;2023-09-07T11:23:25;8.40;;;5.23;;
4692;SDS011;11710;48.024;16.296;2023-09-07T11:25:53;7.97;;;5.43;;
4692;SDS011;11710;48.024;16.296;2023-09-07T11:28:21;6.37;;;5.50;;
4692;SDS011;11710;48.024;16.296;2023-09-07T11:30:50;6.50;;;5.90;;
4692;SDS011;11710;48.024;16.296;2023-09-07T11:33:18;6.83;;;5.60;;
4692;SDS011;11710;48.024;16.296;2023-09-07T11:35:47;8.23;;;5.83;;
4692;SDS011;11710;48.024;16.296;2023-09-07T11:38:15;11.70;;;5.90;;
4692;SDS011;11710;48.024;16.296;2023-09-07T11:40:43;11.17;;;6.60;;
4692;SDS011;11710;48.024;16.296;2023-09-07T11:43:11;7.30;;;5.90;;
4692;SDS011;11710;48.024;16.296;2023-09-07T11:45:39;7.43;;;5.47;;
4692;SDS011;11710;48.024;16.296;2023-09-07T11:48:06;5.30;;;4.80;;
4692;SDS011;11710;48.024;16.296;2023-09-07T11:50:35;6.87;;;5.80;;
4692;SDS011;11710;48.024;16.296;2023-09-07T11:53:04;6.90;;;6.20;;
4692;SDS011;11710;48.024;16.296;2023-09-07T11:55:32;7.70;;;6.90;;
4692;SDS011;11710;48.024;16.296;2023-09-07T11:58:00;7.13;;;5.70;;
4692;SDS011;11710;48.024;16.296;2023-09-07T12:00:27;7.20;;;6.60;;
4692;SDS011;11710;48.024;16.296;2023-09-07T12:02:56;7.00;;;5.87;;
4692;SDS011;11710;48.024;16.296;2023-09-07T12:05:23;5.87;;;5.33;;
4692;SDS011;11710;48.024;16.296;2023-09-07T12:07:52;11.30;;;6.20;;
4692;SDS011;11710;48.024;16.296;2023-09-07T12:10:21;6.70;;;5.47;;
4692;SDS011;11710;48.024;16.296;2023-09-07T12:12:48;7.70;;;6.03;;
4692;SDS011;11710;48.024;16.296;2023-09-07T12:15:16;6.97;;;5.80;;
4692;SDS011;11710;48.024;16.296;2023-09-07T12:17:43;6.63;;;5.40;;
4692;SDS011;11710;48.024;16.296;2023-09-07T12:20:12;5.73;;;5.23;;
4692;SDS011;11710;48.024;16.296;2023-09-07T12:22:39;9.37;;;6.00;;
4692;SDS011;11710;48.024;16.296;2023-09-07T12:25:07;7.97;;;5.63;;
4692;SDS011;11710;48.024;16.296;2023-09-07T12:27:37;6.20;;;5.60;;
4692;SDS011;11710;48.024;16.296;2023-09-07T12:30:06;5.57;;;5.07;;
4692;SDS011;11710;48.024;16.296;2023-09-07T12:32:37;6.17;;;5.57;;
4692;SDS011;11710;48.024;16.296;2023-09-07T12:35:05;8.53;;;5.67;;
4692;SDS011;11710;48.024;16.296;2023-09-07T12:37:34;7.53;;;5.33;;
4692;SDS011;11710;48.024;16.296;2023-09-07T12:40:02;5.97;;;5.47;;
4692;SDS011;11710;48.024;16.296;2023-09-07T12:42:38;6.00;;;5.40;;
4692;SDS011;11710;48.024;16.296;2023-09-07T12:45:07;7.50;;;5.60;;
4692;SDS011;11710;48.024;16.296;2023-09-07T12:47:35;12.03;;;5.70;;
4692;SDS011;11710;48.024;16.296;2023-09-07T12:50:03;6.20;;;5.60;;
4692;SDS011;11710;48.024;16.296;2023-09-07T12:52:32;6.97;;;5.80;;
4692;SDS011;11710;48.024;16.296;2023-09-07T12:55:03;6.03;;;5.43;;
4692;SDS011;11710;48.024;16.296;2023-09-07T12:57:30;7.97;;;5.57;;
4692;SDS011;11710;48.024;16.296;2023-09-07T12:59:59;6.33;;;5.73;;
4692;SDS011;11710;48.024;16.296;2023-09-07T13:02:27;6.70;;;6.10;;
4692;SDS011;11710;48.024;16.296;2023-09-07T13:04:54;6.70;;;6.10;;
4692;SDS011;11710;48.024;16.296;2023-09-07T13:07:22;8.00;;;6.03;;
4692;SDS011;11710;48.024;16.296;2023-09-07T13:09:50;5.97;;;5.47;;
4692;SDS011;11710;48.024;16.296;2023-09-07T13:12:18;6.00;;;5.40;;
4692;SDS011;11710;48.024;16.296;2023-09-07T13:14:45;6.60;;;6.00;;
4692;SDS011;11710;48.024;16.296;2023-09-07T13:17:14;6.07;;;5.50;;
4692;SDS011;11710;48.024;16.296;2023-09-07T13:19:42;5.70;;;5.20;;
4692;SDS011;11710;48.024;16.296;2023-09-07T13:22:09;6.27;;;5.40;;
4692;SDS011;11710;48.024;16.296;2023-09-07T13:24:37;5.87;;;5.30;;
4692;SDS011;11710;48.024;16.296;2023-09-07T13:27:04;7.83;;;5.90;;
4692;SDS011;11710;48.024;16.296;2023-09-07T13:29:33;11.53;;;5.90;;
4692;SDS011;11710;48.024;16.296;2023-09-07T13:32:01;6.50;;;5.77;;
4692;SDS011;11710;48.024;16.296;2023-09-07T13:34:30;7.40;;;6.70;;
4692;SDS011;11710;48.024;16.296;2023-09-07T13:36:58;8.80;;;6.27;;
4692;SDS011;11710;48.024;16.296;2023-09-07T13:39:25;6.80;;;6.10;;
4692;SDS011;11710;48.024;16.296;2023-09-07T13:41:53;6.37;;;5.70;;
4692;SDS011;11710;48.024;16.296;2023-09-07T13:44:20;5.73;;;5.20;;
4692;SDS011;11710;48.024;16.296;2023-09-07T13:46:47;7.50;;;6.10;;
4692;SDS011;11710;48.024;16.296;2023-09-07T13:49:16;6.67;;;5.90;;
4692;SDS011;11710;48.024;16.296;2023-09-07T13:51:46;6.90;;;6.20;;
4692;SDS011;11710;48.024;16.296;2023-09-07T13:54:13;6.10;;;5.50;;
4692;SDS011;11710;48.024;16.296;2023-09-07T13:56:40;8.67;;;5.90;;
4692;SDS011;11710;48.024;16.296;2023-09-07T13:59:10;7.20;;;6.00;;
4692;SDS011;11710;48.024;16.296;2023-09-07T14:01:37;6.13;;;5.50;;
4692;SDS011;11710;48.024;16.296;2023-09-07T14:04:06;5.90;;;5.40;;
4692;SDS011;11710;48.024;16.296;2023-09-07T14:06:33;6.50;;;5.80;;
4692;SDS011;11710;48.024;16.296;2023-09-07T14:09:02;6.53;;;5.93;;
4692;SDS011;11710;48.024;16.296;2023-09-07T14:11:32;6.50;;;5.90;;
4692;SDS011;11710;48.024;16.296;2023-09-07T14:13:59;6.53;;;5.50;;
4692;SDS011;11710;48.024;16.296;2023-09-07T14:16:27;6.37;;;5.77;;
4692;SDS011;11710;48.024;16.296;2023-09-07T14:18:54;7.83;;;5.77;;
4692;SDS011;11710;48.024;16.296;2023-09-07T14:21:22;6.87;;;5.77;;
4692;SDS011;11710;48.024;16.296;2023-09-07T14:23:49;6.30;;;5.67;;
4692;SDS011;11710;48.024;16.296;2023-09-07T14:26:18;7.03;;;6.20;;
4692;SDS011;11710;48.024;16.296;2023-09-07T14:28:46;6.67;;;5.67;;
4692;SDS011;11710;48.024;16.296;2023-09-07T14:31:13;5.93;;;5.43;;
4692;SDS011;11710;48.024;16.296;2023-09-07T14:33:40;5.93;;;5.33;;
4692;SDS011;11710;48.024;16.296;2023-09-07T14:36:08;7.17;;;6.10;;
4692;SDS011;11710;48.024;16.296;2023-09-07T14:38:36;5.53;;;5.10;;
4692;SDS011;11710;48.024;16.296;2023-09-07T14:41:06;5.60;;;5.10;;
4692;SDS011;11710;48.024;16.296;2023-09-07T14:43:38;5.73;;;5.10;;
4692;SDS011;11710;48.024;16.296;2023-09-07T14:46:05;5.90;;;5.40;;
4692;SDS011;11710;48.024;16.296;2023-09-07T14:48:33;7.20;;;5.70;;
4692;SDS011;11710;48.024;16.296;2023-09-07T14:51:00;8.33;;;5.60;;
4692;SDS011;11710;48.024;16.296;2023-09-07T14:53:27;6.03;;;5.43;;
4692;SDS011;11710;48.024;16.296;2023-09-07T14:55:55;7.60;;;5.80;;
4692;SDS011;11710;48.024;16.296;2023-09-07T14:58:23;12.53;;;5.60;;
4692;SDS011;11710;48.024;16.296;2023-09-07T15:00:52;8.97;;;5.83;;
4692;SDS011;11710;48.024;16.296;2023-09-07T15:03:19;6.37;;;5.77;;
4692;SDS011;11710;48.024;16.296;2023-09-07T15:05:47;5.73;;;5.13;;
4692;SDS011;11710;48.024;16.296;2023-09-07T15:08:14;8.63;;;5.43;;
4692;SDS011;11710;48.024;16.296;2023-09-07T15:10:42;8.90;;;5.43;;
4692;SDS011;11710;48.024;16.296;2023-09-07T15:13:09;7.13;;;5.40;;
4692;SDS011;11710;48.024;16.296;2023-09-07T15:15:37;5.90;;;5.30;;
4692;SDS011;11710;48.024;16.296;2023-09-07T15:18:08;7.40;;;5.77;;
4692;SDS011;11710;48.024;16.296;2023-09-07T15:20:36;8.70;;;5.40;;
4692;SDS011;11710;48.024;16.296;2023-09-07T15:23:03;8.97;;;5.90;;
4692;SDS011;11710;48.024;16.296;2023-09-07T15:25:31;7.00;;;5.10;;
4692;SDS011;11710;48.024;16.296;2023-09-07T15:27:58;5.67;;;5.17;;
4692;SDS011;11710;48.024;16.296;2023-09-07T15:30:26;6.80;;;5.10;;
4692;SDS011;11710;48.024;16.296;2023-09-07T15:32:53;6.60;;;5.40;;
4692;SDS011;11710;48.024;16.296;2023-09-07T15:35:23;5.40;;;4.90;;
4692;SDS011;11710;48.024;16.296;2023-09-07T15:37:55;7.17;;;5.90;;
4692;SDS011;11710;48.024;16.296;2023-09-07T15:40:28;6.60;;;6.00;;
4692;SDS011;11710;48.024;16.296;2023-09-07T15:42:55;8.90;;;5.50;;
4692;SDS011;11710;48.024;16.296;2023-09-07T15:45:23;7.10;;;6.30;;
4692;SDS011;11710;48.024;16.296;2023-09-07T15:47:51;7.47;;;5.73;;
4692;SDS011;11710;48.024;16.296;2023-09-07T15:50:18;6.73;;;6.03;;
4692;SDS011;11710;48.024;16.296;2023-09-07T15:52:48;6.93;;;6.10;;
4692;SDS011;11710;48.024;16.296;2023-09-07T15:55:16;6.50;;;5.90;;
4692;SDS011;11710;48.024;16.296;2023-09-07T15:57:48;6.60;;;5.70;;
4692;SDS011;11710;48.024;16.296;2023-09-07T16:00:23;7.10;;;5.60;;
4692;SDS011;11710;48.024;16.296;2023-09-07T16:02:51;7.33;;;6.20;;
4692;SDS011;11710;48.024;16.296;2023-09-07T16:05:18;10.27;;;6.37;;
4692;SDS011;11710;48.024;16.296;2023-09-07T16:07:51;8.93;;;6.23;;
4692;SDS011;11710;48.024;16.296;2023-09-07T16:10:18;8.63;;;5.93;;
4692;SDS011;11710;48.024;16.296;2023-09-07T16:12:46;8.40;;;6.03;;
4692;SDS011;11710;48.024;16.296;2023-09-07T16:15:14;7.43;;;5.97;;
4692;SDS011;11710;48.024;16.296;2023-09-07T16:17:42;6.47;;;5.80;;
4692;SDS011;11710;48.024;16.296;2023-09-07T16:20:10;8.50;;;5.90;;
4692;SDS011;11710;48.024;16.296;2023-09-07T16:22:37;7.83;;;6.40;;
4692;SDS011;11710;48.024;16.296;2023-09-07T16:25:07;7.07;;;6.40;;
4692;SDS011;11710;48.024;16.296;2023-09-07T16:27:34;6.83;;;6.00;;
4692;SDS011;11710;48.024;16.296;2023-09-07T16:30:06;9.93;;;6.30;;
4692;SDS011;11710;48.024;16.296;2023-09-07T16:32:34;7.83;;;5.97;;
4692;SDS011;11710;48.024;16.296;2023-09-07T16:35:03;6.07;;;5.47;;
4692;SDS011;11710;48.024;16.296;2023-09-07T16:37:31;6.60;;;5.90;;
4692;SDS011;11710;48.024;16.296;2023-09-07T16:39:58;6.53;;;5.97;;
4692;SDS011;11710;48.024;16.296;2023-09-07T16:42:27;7.13;;;5.73;;
4692;SDS011;11710;48.024;16.296;2023-09-07T16:44:54;6.80;;;6.10;;
4692;SDS011;11710;48.024;16.296;2023-09-07T16:47:22;6.50;;;5.90;;
4692;SDS011;11710;48.024;16.296;2023-09-07T16:49:49;6.80;;;6.10;;
4692;SDS011;11710;48.024;16.296;2023-09-07T16:52:17;11.57;;;6.13;;
4692;SDS011;11710;48.024;16.296;2023-09-07T16:54:45;6.97;;;5.50;;
4692;SDS011;11710;48.024;16.296;2023-09-07T16:57:12;8.83;;;6.20;;
4692;SDS011;11710;48.024;16.296;2023-09-07T16:59:41;8.73;;;6.53;;
4692;SDS011;11710;48.024;16.296;2023-09-07T17:02:08;9.50;;;5.83;;
4692;SDS011;11710;48.024;16.296;2023-09-07T17:04:36;9.80;;;6.53;;
4692;SDS011;11710;48.024;16.296;2023-09-07T17:07:03;7.30;;;6.60;;
4692;SDS011;11710;48.024;16.296;2023-09-07T17:09:31;7.20;;;6.23;;
4692;SDS011;11710;48.024;16.296;2023-09-07T17:11:59;9.47;;;6.00;;
4692;SDS011;11710;48.024;16.296;2023-09-07T17:14:27;8.93;;;6.20;;
4692;SDS011;11710;48.024;16.296;2023-09-07T17:16:56;10.80;;;6.80;;
4692;SDS011;11710;48.024;16.296;2023-09-07T17:19:24;15.43;;;6.93;;
4692;SDS011;11710;48.024;16.296;2023-09-07T17:21:52;8.30;;;5.63;;
4692;SDS011;11710;48.024;16.296;2023-09-07T17:24:20;8.03;;;6.10;;
4692;SDS011;11710;48.024;16.296;2023-09-07T17:26:47;8.87;;;6.50;;
4692;SDS011;11710;48.024;16.296;2023-09-07T17:29:15;9.47;;;7.27;;
4692;SDS011;11710;48.024;16.296;2023-09-07T17:31:43;7.03;;;6.20;;
4692;SDS011;11710;48.024;16.296;2023-09-07T17:34:12;7.40;;;6.20;;
4692;SDS011;11710;48.024;16.296;2023-09-07T17:36:39;9.23;;;6.93;;
4692;SDS011;11710;48.024;16.296;2023-09-07T17:39:08;11.17;;;6.67;;
4692;SDS011;11710;48.024;16.296;2023-09-07T17:41:35;9.37;;;6.40;;
4692;SDS011;11710;48.024;16.296;2023-09-07T17:44:04;7.37;;;6.53;;
4692;SDS011;11710;48.024;16.296;2023-09-07T17:46:31;8.20;;;6.57;;
4692;SDS011;11710;48.024;16.296;2023-09-07T17:48:59;7.93;;;6.77;;
4692;SDS011;11710;48.024;16.296;2023-09-07T17:51:27;12.23;;;7.30;;
4692;SDS011;11710;48.024;16.296;2023-09-07T17:53:55;10.80;;;6.73;;
4692;SDS011;11710;48.024;16.296;2023-09-07T17:56:22;7.63;;;6.53;;
4692;SDS011;11710;48.024;16.296;2023-09-07T17:58:50;7.87;;;6.30;;
4692;SDS011;11710;48.024;16.296;2023-09-07T18:01:18;10.30;;;7.00;;
4692;SDS011;11710;48.024;16.296;2023-09-07T18:03:46;11.07;;;7.93;;
4692;SDS011;11710;48.024;16.296;2023-09-07T18:06:13;10.47;;;7.00;;
4692;SDS011;11710;48.024;16.296;2023-09-07T18:08:42;10.60;;;7.27;;
4692;SDS011;11710;48.024;16.296;2023-09-07T18:11:10;10.20;;;6.40;;
4692;SDS011;11710;48.024;16.296;2023-09-07T18:13:38;15.63;;;7.10;;
4692;SDS011;11710;48.024;16.296;2023-09-07T18:16:05;10.47;;;7.17;;
4692;SDS011;11710;48.024;16.296;2023-09-07T18:18:33;13.40;;;6.73;;
4692;SDS011;11710;48.024;16.296;2023-09-07T18:21:05;7.50;;;6.67;;
4692;SDS011;11710;48.024;16.296;2023-09-07T18:23:33;10.53;;;7.27;;
4692;SDS011;11710;48.024;16.296;2023-09-07T18:26:03;18.90;;;12.87;;
4692;SDS011;11710;48.024;16.296;2023-09-07T18:28:31;14.90;;;11.50;;
4692;SDS011;11710;48.024;16.296;2023-09-07T18:30:58;10.77;;;7.90;;
4692;SDS011;11710;48.024;16.296;2023-09-07T18:33:26;13.23;;;8.17;;
4692;SDS011;11710;48.024;16.296;2023-09-07T18:36:01;12.83;;;7.10;;
4692;SDS011;11710;48.024;16.296;2023-09-07T18:38:29;12.53;;;7.27;;
4692;SDS011;11710;48.024;16.296;2023-09-07T18:40:58;9.50;;;7.07;;
4692;SDS011;11710;48.024;16.296;2023-09-07T18:43:28;10.13;;;6.63;;
4692;SDS011;11710;48.024;16.296;2023-09-07T18:46:02;11.03;;;7.37;;
4692;SDS011;11710;48.024;16.296;2023-09-07T18:48:31;9.80;;;6.93;;
4692;SDS011;11710;48.024;16.296;2023-09-07T18:50:59;10.40;;;7.27;;
4692;SDS011;11710;48.024;16.296;2023-09-07T18:53:28;11.93;;;7.77;;
4692;SDS011;11710;48.024;16.296;2023-09-07T18:55:56;10.60;;;7.43;;
4692;SDS011;11710;48.024;16.296;2023-09-07T18:58:23;11.07;;;7.80;;
4692;SDS011;11710;48.024;16.296;2023-09-07T19:00:53;9.30;;;7.37;;
4692;SDS011;11710;48.024;16.296;2023-09-07T19:03:21;11.07;;;7.70;;
4692;SDS011;11710;48.024;16.296;2023-09-07T19:05:48;14.50;;;12.70;;
4692;SDS011;11710;48.024;16.296;2023-09-07T19:08:16;15.17;;;9.53;;
4692;SDS011;11710;48.024;16.296;2023-09-07T19:10:44;11.63;;;9.40;;
4692;SDS011;11710;48.024;16.296;2023-09-07T19:13:12;11.93;;;9.67;;
4692;SDS011;11710;48.024;16.296;2023-09-07T19:15:39;13.23;;;8.50;;
4692;SDS011;11710;48.024;16.296;2023-09-07T19:18:09;13.83;;;7.70;;
4692;SDS011;11710;48.024;16.296;2023-09-07T19:20:37;9.40;;;7.10;;
4692;SDS011;11710;48.024;16.296;2023-09-07T19:23:05;9.23;;;7.87;;
4692;SDS011;11710;48.024;16.296;2023-09-07T19:25:32;9.90;;;8.10;;
4692;SDS011;11710;48.024;16.296;2023-09-07T19:28:00;10.23;;;7.47;;
4692;SDS011;11710;48.024;16.296;2023-09-07T19:30:27;12.80;;;8.60;;
4692;SDS011;11710;48.024;16.296;2023-09-07T19:32:57;10.63;;;8.50;;
4692;SDS011;11710;48.024;16.296;2023-09-07T19:35:26;11.10;;;9.17;;
4692;SDS011;11710;48.024;16.296;2023-09-07T19:37:54;10.83;;;8.73;;
4692;SDS011;11710;48.024;16.296;2023-09-07T19:40:22;14.10;;;9.27;;
4692;SDS011;11710;48.024;16.296;2023-09-07T19:42:50;11.57;;;8.73;;
4692;SDS011;11710;48.024;16.296;2023-09-07T19:45:17;12.03;;;8.57;;
4692;SDS011;11710;48.024;16.296;2023-09-07T19:47:45;11.30;;;8.20;;
4692;SDS011;11710;48.024;16.296;2023-09-07T19:50:13;13.27;;;7.97;;
4692;SDS011;11710;48.024;16.296;2023-09-07T19:52:42;12.40;;;8.40;;
4692;SDS011;11710;48.024;16.296;2023-09-07T19:55:13;11.63;;;8.70;;
4692;SDS011;11710;48.024;16.296;2023-09-07T19:57:41;8.83;;;7.50;;
4692;SDS011;11710;48.024;16.296;2023-09-07T20:00:09;9.17;;;7.80;;
4692;SDS011;11710;48.024;16.296;2023-09-07T20:02:38;9.30;;;8.40;;
4692;SDS011;11710;48.024;16.296;2023-09-07T20:05:06;9.20;;;7.67;;